Belchatow, Poland
Current Conditions -  °F | °C
As of 4:30 AM on Monday 24 Nov 2014 (Local Time) from EPLL Reporting Station
Overcast Overcast  
Wind Chill: 23°   Ceiling: 800
Heat Index: 32°   Visibility: 6mi
Dew Point: 28°   Wind: 13mph
Humidity: 87%   Direction: 130°SE
Pressure: 30.36"   Gusts: NA
Location:  51.37°N, 19.36°E
Report Text: EPLL 240230Z 13011KT 9999 OVC008 M00/M02 Q1028
Loading
Personal Weather Stations






























Interactive Weather Map New forecast layout! Learn more

10-Day Weather Forecast

Advertisements
Track Severe Weather on mobile